Hong Xiang 2 — BYBA — position and weather

sailwx.info

Track history (hours):
 
Tides and Currents Weather Stations Pressure Air Temp Water Temp Dewpoint Dewpoint Depression Visibility Wind Speed Wind Dir Waves Ship Positions

Hong Xiang 2

Last reported at 2017-May-29 06:01 UTC. Time now 2017-May-29 09:37 UTC.
Position N 31°04' E 122°31'.

Length 96 m; draft 4.9 m.

Type: Ship (hazmat cat A). MMSI: 413413000.

Date/timePositionNaut miles runAvg speedWind from/ knotsBaromVisibWave heightAir tempDewpointWater temp
2017-May-29 06:01N 31°04' E 122°31'3 9.4
2017-May-29 05:39N 31°07' E 122°31'4 9.2
2017-May-29 05:15N 31°11' E 122°31'3 9.2
2017-May-29 04:57N 31°14' E 122°31'6 9.3
2017-May-29 04:18N 31°20' E 122°31'3 9.6
2017-May-29 04:00N 31°23' E 122°31'5 9.2
2017-May-29 03:27N 31°28' E 122°32'5 9.6
2017-May-29 02:55N 31°33' E 122°32'710.2
2017-May-29 02:13N 31°40' E 122°32'210.0
2017-May-29 01:59N 31°42' E 122°32'1210.9
2017-May-29 00:54N 31°54' E 122°33'512.4
2017-May-29 00:30N 31°59' E 122°33'911.7
2017-May-28 23:45N 32°08' E 122°34'311.6
2017-May-28 23:29N 32°11' E 122°34'911.2
2017-May-28 22:38N 32°20' E 122°34'18 9.8
2017-May-28 20:46N 32°39' E 122°36'3 9.2
2017-May-28 20:28N 32°41' E 122°36'19 8.3
2017-May-28 18:08N 33°01' E 122°37'22 9.5
2017-May-28 15:49N 33°23' E 122°38'2711.2
2017-May-28 13:24N 33°50' E 122°39'711.6
2017-May-28 12:50N 33°56' E 122°39'227 9.7
2017-May-27 13:22N 37°41' E 122°04'1010.4
2017-May-27 12:27N 37°44' E 121°52'410.2
2017-May-27 12:00N 37°46' E 121°47'510.2
2017-May-27 11:30N 37°47' E 121°40'510.1
2017-May-27 11:00N 37°49' E 121°34'510.2
2017-May-27 10:30N 37°50' E 121°28'510.1
2017-May-27 10:00N 37°52' E 121°22'610.3
2017-May-27 09:26N 37°53' E 121°15'410.4
2017-May-27 09:00N 37°55' E 121°10'510.2
2017-May-27 08:30N 37°56' E 121°03'5 9.9
2017-May-27 08:00N 37°57' E 120°57'5 9.7
2017-May-27 07:30N 37°59' E 120°51'5 9.3
2017-May-27 07:00N 37°60' E 120°46'4 8.8
2017-May-27 06:30N 38°01' E 120°40'4 7.8
2017-May-27 06:00N 38°02' E 120°35'4 8.0
2017-May-27 05:30N 38°02' E 120°30'4 8.1
2017-May-27 05:00N 38°02' E 120°25'6 8.6
2017-May-27 04:17N 38°02' E 120°18'4 9.1
2017-May-27 03:49N 38°02' E 120°12'51 1.7
2017-May-25 21:25N 38°07' E 119°08'0 0.0
2017-May-25 19:55N 38°07' E 119°08'  
2017-May-20 05:43N 38°02' E 119°39'210.4
2017-May-20 05:30N 38°02' E 119°41'1010.2
2017-May-20 04:32N 38°03' E 119°54'210.0
2017-May-20 04:20N 38°03' E 119°56'5 9.8
2017-May-20 03:50N 38°03' E 120°03'3 9.9
2017-May-20 03:30N 38°03' E 120°07'5 9.9
2017-May-20 03:00N 38°04' E 120°13'5 9.8
2017-May-20 02:30N 38°04' E 120°19'5 9.9
2017-May-20 02:00N 38°04' E 120°26'510.1
2017-May-20 01:30N 38°04' E 120°32'510.1
2017-May-20 01:00N 38°03' E 120°38'510.1
2017-May-20 00:30N 38°02' E 120°44'510.5
2017-May-20 00:01N 38°00' E 120°51'610.5
2017-May-19 23:28N 37°59' E 120°58'510.5
2017-May-19 22:58N 37°58' E 121°05'610.5
2017-May-19 22:25N 37°57' E 121°12'410.4
2017-May-19 22:01N 37°55' E 121°17'510.2
2017-May-19 21:31N 37°54' E 121°23'510.1
2017-May-19 21:01N 37°53' E 121°29'510.0
2017-May-19 20:31N 37°51' E 121°35'510.0
2017-May-19 20:01N 37°50' E 121°41'510.0
2017-May-19 19:31N 37°48' E 121°47'510.2
2017-May-19 19:00N 37°47' E 121°54'510.2
2017-May-19 18:29N 37°46' E 121°60'510.2
2017-May-19 18:00N 37°44' E 122°06'610.6
2017-May-19 17:26N 37°42' E 122°13'  
Track history (hours):
 
Tides and Currents Weather Stations Pressure Air Temp Water Temp Dewpoint Dewpoint Depression Visibility Wind Speed Wind Dir Waves Ship Positions

Hong Xiang 2

Last reported at 2017-May-29 06:01 UTC. Time now 2017-May-29 09:37 UTC.
Position N 31°04' E 122°31'.

Length 96 m; draft 4.9 m.

Type: Ship (hazmat cat A). MMSI: 413413000.

Date/timePositionNaut miles runAvg speedWind from/ knotsBaromVisibWave heightAir tempDewpointWater temp
2017-May-29 06:01N 31°04' E 122°31'3 9.4
2017-May-29 05:39N 31°07' E 122°31'4 9.2
2017-May-29 05:15N 31°11' E 122°31'3 9.2
2017-May-29 04:57N 31°14' E 122°31'6 9.3
2017-May-29 04:18N 31°20' E 122°31'3 9.6
2017-May-29 04:00N 31°23' E 122°31'5 9.2
2017-May-29 03:27N 31°28' E 122°32'5 9.6
2017-May-29 02:55N 31°33' E 122°32'710.2
2017-May-29 02:13N 31°40' E 122°32'210.0
2017-May-29 01:59N 31°42' E 122°32'1210.9
2017-May-29 00:54N 31°54' E 122°33'512.4
2017-May-29 00:30N 31°59' E 122°33'911.7
2017-May-28 23:45N 32°08' E 122°34'311.6
2017-May-28 23:29N 32°11' E 122°34'911.2
2017-May-28 22:38N 32°20' E 122°34'18 9.8
2017-May-28 20:46N 32°39' E 122°36'3 9.2
2017-May-28 20:28N 32°41' E 122°36'19 8.3
2017-May-28 18:08N 33°01' E 122°37'22 9.5
2017-May-28 15:49N 33°23' E 122°38'2711.2
2017-May-28 13:24N 33°50' E 122°39'711.6
2017-May-28 12:50N 33°56' E 122°39'227 9.7
2017-May-27 13:22N 37°41' E 122°04'1010.4
2017-May-27 12:27N 37°44' E 121°52'410.2
2017-May-27 12:00N 37°46' E 121°47'510.2
2017-May-27 11:30N 37°47' E 121°40'510.1
2017-May-27 11:00N 37°49' E 121°34'510.2
2017-May-27 10:30N 37°50' E 121°28'510.1
2017-May-27 10:00N 37°52' E 121°22'610.3
2017-May-27 09:26N 37°53' E 121°15'410.4
2017-May-27 09:00N 37°55' E 121°10'510.2
2017-May-27 08:30N 37°56' E 121°03'5 9.9
2017-May-27 08:00N 37°57' E 120°57'5 9.7
2017-May-27 07:30N 37°59' E 120°51'5 9.3
2017-May-27 07:00N 37°60' E 120°46'4 8.8
2017-May-27 06:30N 38°01' E 120°40'4 7.8
2017-May-27 06:00N 38°02' E 120°35'4 8.0
2017-May-27 05:30N 38°02' E 120°30'4 8.1
2017-May-27 05:00N 38°02' E 120°25'6 8.6
2017-May-27 04:17N 38°02' E 120°18'4 9.1
2017-May-27 03:49N 38°02' E 120°12'51 1.7
2017-May-25 21:25N 38°07' E 119°08'0 0.0
2017-May-25 19:55N 38°07' E 119°08'  
2017-May-20 05:43N 38°02' E 119°39'210.4
2017-May-20 05:30N 38°02' E 119°41'1010.2
2017-May-20 04:32N 38°03' E 119°54'210.0
2017-May-20 04:20N 38°03' E 119°56'5 9.8
2017-May-20 03:50N 38°03' E 120°03'3 9.9
2017-May-20 03:30N 38°03' E 120°07'5 9.9
2017-May-20 03:00N 38°04' E 120°13'5 9.8
2017-May-20 02:30N 38°04' E 120°19'5 9.9
2017-May-20 02:00N 38°04' E 120°26'510.1
2017-May-20 01:30N 38°04' E 120°32'510.1
2017-May-20 01:00N 38°03' E 120°38'510.1
2017-May-20 00:30N 38°02' E 120°44'510.5
2017-May-20 00:01N 38°00' E 120°51'610.5
2017-May-19 23:28N 37°59' E 120°58'510.5
2017-May-19 22:58N 37°58' E 121°05'610.5
2017-May-19 22:25N 37°57' E 121°12'410.4
2017-May-19 22:01N 37°55' E 121°17'510.2
2017-May-19 21:31N 37°54' E 121°23'510.1
2017-May-19 21:01N 37°53' E 121°29'510.0
2017-May-19 20:31N 37°51' E 121°35'510.0
2017-May-19 20:01N 37°50' E 121°41'510.0
2017-May-19 19:31N 37°48' E 121°47'510.2
2017-May-19 19:00N 37°47' E 121°54'510.2
2017-May-19 18:29N 37°46' E 121°60'510.2
2017-May-19 18:00N 37°44' E 122°06'610.6
2017-May-19 17:26N 37°42' E 122°13'  

Dump ship's entire track history